createdAt,value
2019-03-26T00:01:56.527Z,3.70
2019-03-26T00:04:26.797Z,3.70
2019-03-26T00:06:57.094Z,3.80
2019-03-26T00:09:28.606Z,3.80
2019-03-26T00:11:58.806Z,3.80
2019-03-26T00:14:29.535Z,3.90
2019-03-26T00:17:00.278Z,3.80
2019-03-26T00:19:30.503Z,3.90
2019-03-26T00:22:00.879Z,3.90
2019-03-26T00:24:31.264Z,3.90
2019-03-26T00:27:01.571Z,3.90
2019-03-26T00:29:31.826Z,3.90
2019-03-26T00:32:02.479Z,3.80
2019-03-26T00:34:32.850Z,3.80
2019-03-26T00:37:03.168Z,3.70
2019-03-26T00:39:33.571Z,3.60
2019-03-26T00:42:03.833Z,3.70
2019-03-26T00:44:34.062Z,3.70
2019-03-26T00:47:04.524Z,3.70
2019-03-26T00:49:34.766Z,3.80
2019-03-26T00:52:05.101Z,3.80
2019-03-26T00:54:35.454Z,3.80
2019-03-26T00:57:05.677Z,3.80
2019-03-26T00:59:35.911Z,3.80
2019-03-26T01:02:06.231Z,3.90
2019-03-26T01:04:37.915Z,3.90
2019-03-26T01:07:08.232Z,4.00
2019-03-26T01:09:38.635Z,3.90
2019-03-26T01:12:09.062Z,4.00
2019-03-26T01:14:39.321Z,4.00
2019-03-26T01:17:09.826Z,4.10
2019-03-26T01:19:41.277Z,4.00
2019-03-26T01:22:13.200Z,4.00
2019-03-26T01:24:43.379Z,4.10
2019-03-26T01:27:13.623Z,4.00
2019-03-26T01:29:44.024Z,4.10
2019-03-26T01:32:14.228Z,4.20
2019-03-26T01:34:46.124Z,4.20
2019-03-26T01:37:16.367Z,4.10
2019-03-26T01:39:47.224Z,4.10
2019-03-26T01:42:17.429Z,4.20
2019-03-26T01:44:47.766Z,4.20
2019-03-26T01:47:17.939Z,4.20
2019-03-26T01:49:48.160Z,4.30
2019-03-26T01:52:18.491Z,4.30
2019-03-26T01:54:48.739Z,4.30
2019-03-26T01:57:18.992Z,4.20
2019-03-26T01:59:49.300Z,4.20
2019-03-26T02:02:19.691Z,4.20
2019-03-26T02:04:59.790Z,4.20
2019-03-26T02:07:22.179Z,4.10
2019-03-26T02:09:52.612Z,4.00
2019-03-26T02:12:22.855Z,4.10
2019-03-26T02:14:56.372Z,4.20
2019-03-26T02:17:26.636Z,4.20
2019-03-26T02:19:56.839Z,4.20
2019-03-26T02:22:27.756Z,4.20
2019-03-26T02:24:57.934Z,4.20
2019-03-26T02:27:28.134Z,4.10
2019-03-26T02:29:58.489Z,4.00
2019-03-26T02:32:28.694Z,4.10
2019-03-26T02:35:16.355Z,4.20
2019-03-26T02:37:31.026Z,4.30
2019-03-26T02:40:01.719Z,4.30
2019-03-26T02:42:31.949Z,4.30
2019-03-26T02:45:02.423Z,4.20
2019-03-26T02:47:32.730Z,4.10
2019-03-26T02:50:04.785Z,4.20
2019-03-26T02:52:35.179Z,4.10
2019-03-26T02:55:05.691Z,4.20
2019-03-26T02:57:35.949Z,4.20
2019-03-26T03:00:07.421Z,4.20
2019-03-26T03:02:37.738Z,4.20
2019-03-26T03:05:08.047Z,4.20
2019-03-26T03:07:38.381Z,4.20
2019-03-26T03:10:08.804Z,4.10
2019-03-26T03:12:39.115Z,4.10
2019-03-26T03:15:12.600Z,4.10
2019-03-26T03:17:43.037Z,4.10
2019-03-26T03:20:14.320Z,4.20
2019-03-26T03:22:44.519Z,4.00
2019-03-26T03:25:14.847Z,4.00
2019-03-26T03:27:45.247Z,3.90
2019-03-26T03:30:16.677Z,3.80
2019-03-26T03:32:47.023Z,3.80
2019-03-26T03:35:17.372Z,3.80
2019-03-26T03:37:47.690Z,3.70
2019-03-26T03:40:19.546Z,3.70
2019-03-26T03:42:49.919Z,3.70
2019-03-26T03:45:28.349Z,3.70
2019-03-26T03:47:59.672Z,3.70
2019-03-26T03:50:31.211Z,3.60
2019-03-26T03:53:02.630Z,3.60
2019-03-26T03:55:33.567Z,3.50
2019-03-26T03:58:04.300Z,3.40
2019-03-26T04:00:39.352Z,3.50
2019-03-26T04:03:13.917Z,3.50
2019-03-26T04:05:44.278Z,3.50
2019-03-26T04:08:17.124Z,3.50
2019-03-26T04:10:47.413Z,3.50
2019-03-26T04:13:17.658Z,3.60
2019-03-26T04:15:47.886Z,3.60
2019-03-26T04:18:18.311Z,3.70
2019-03-26T04:20:48.577Z,3.80
2019-03-26T04:23:18.869Z,3.80
2019-03-26T04:25:49.286Z,3.80
2019-03-26T04:28:19.547Z,3.80
2019-03-26T04:30:49.720Z,3.90
2019-03-26T04:33:20.135Z,3.90
2019-03-26T04:35:50.390Z,3.90
2019-03-26T04:38:20.649Z,3.80
2019-03-26T04:40:50.932Z,3.80
2019-03-26T04:43:21.149Z,3.70
2019-03-26T04:45:51.368Z,3.60
2019-03-26T04:48:21.722Z,3.70
2019-03-26T04:50:51.993Z,3.70
2019-03-26T04:53:22.182Z,3.70
2019-03-26T04:55:55.051Z,3.70
2019-03-26T04:58:25.619Z,3.70
2019-03-26T05:00:56.222Z,3.70
2019-03-26T05:03:26.500Z,3.70
2019-03-26T05:05:57.271Z,3.70
2019-03-26T05:08:28.074Z,3.70
2019-03-26T05:10:58.763Z,3.70
2019-03-26T05:13:29.054Z,3.80
2019-03-26T05:15:59.287Z,3.90
2019-03-26T05:18:29.642Z,4.00
2019-03-26T05:20:59.944Z,3.90
2019-03-26T05:23:31.008Z,4.00
2019-03-26T05:26:01.211Z,4.00
2019-03-26T05:28:31.549Z,4.40
2019-03-26T05:31:01.817Z,5.10
2019-03-26T05:33:32.146Z,6.30
2019-03-26T05:36:02.355Z,7.00
2019-03-26T05:38:32.902Z,7.90
2019-03-26T05:41:04.072Z,9.00
2019-03-26T05:43:34.583Z,10.50
2019-03-26T05:46:04.899Z,11.60
2019-03-26T05:48:35.265Z,12.20
2019-03-26T05:51:05.582Z,12.20
2019-03-26T05:53:35.934Z,13.30
2019-03-26T05:56:06.483Z,12.80
2019-03-26T05:58:36.845Z,12.90
2019-03-26T06:01:07.150Z,12.70
2019-03-26T06:03:39.523Z,11.90
2019-03-26T06:06:10.372Z,11.00
2019-03-26T06:08:40.679Z,10.40
2019-03-26T06:11:10.914Z,9.30
2019-03-26T06:13:42.316Z,8.30
2019-03-26T06:16:12.556Z,7.30
2019-03-26T06:18:42.937Z,6.80
2019-03-26T06:21:13.242Z,6.40
2019-03-26T06:23:43.546Z,6.30
2019-03-26T06:26:13.791Z,6.20
2019-03-26T06:28:44.116Z,5.90
2019-03-26T06:31:14.348Z,5.90
2019-03-26T06:33:48.711Z,6.20
2019-03-26T06:36:21.003Z,6.10
2019-03-26T06:38:51.298Z,6.10
2019-03-26T06:41:23.272Z,6.20
2019-03-26T06:43:55.779Z,6.00
2019-03-26T06:46:27.298Z,6.10
2019-03-26T06:48:57.677Z,6.40
2019-03-26T06:51:28.099Z,6.50
2019-03-26T06:53:58.356Z,7.00
2019-03-26T06:56:28.717Z,7.30
2019-03-26T06:58:58.949Z,7.20
2019-03-26T07:01:29.196Z,7.20
2019-03-26T07:03:59.576Z,7.30
2019-03-26T07:06:29.955Z,7.50
2019-03-26T07:09:00.284Z,7.20
2019-03-26T07:11:30.596Z,8.10
2019-03-26T07:14:01.349Z,9.70
2019-03-26T07:16:32.003Z,10.00
2019-03-26T07:19:04.775Z,9.80
2019-03-26T07:21:35.171Z,9.40
2019-03-26T07:24:05.478Z,8.90
2019-03-26T07:26:36.054Z,9.80
2019-03-26T07:29:06.257Z,13.70
2019-03-26T07:31:39.364Z,14.70
2019-03-26T07:34:09.708Z,13.10
2019-03-26T07:36:42.394Z,11.60
2019-03-26T07:39:12.748Z,10.50
2019-03-26T07:41:42.996Z,10.30
2019-03-26T07:44:13.397Z,10.70
2019-03-26T07:46:43.691Z,13.10
2019-03-26T07:49:14.105Z,15.80
2019-03-26T07:51:44.452Z,17.80
2019-03-26T07:54:14.786Z,20.10
2019-03-26T07:56:45.709Z,22.10
2019-03-26T07:59:16.086Z,22.60
2019-03-26T08:01:46.336Z,23.00
2019-03-26T08:04:16.539Z,23.80
2019-03-26T08:06:47.398Z,23.50
2019-03-26T08:09:18.361Z,22.30
2019-03-26T08:11:48.740Z,22.20
2019-03-26T08:14:22.067Z,22.30
2019-03-26T08:16:52.470Z,22.00
2019-03-26T08:19:23.715Z,21.40
2019-03-26T08:21:53.945Z,21.20
2019-03-26T08:24:24.207Z,19.40
2019-03-26T08:26:54.464Z,16.20
2019-03-26T08:29:27.428Z,14.20
2019-03-26T08:32:00.691Z,13.90
2019-03-26T08:34:30.904Z,13.70
2019-03-26T08:37:01.128Z,14.40
2019-03-26T08:39:31.439Z,13.90
2019-03-26T08:42:02.266Z,13.30
2019-03-26T08:44:32.485Z,12.60
2019-03-26T08:47:03.130Z,11.70
2019-03-26T08:49:33.434Z,11.20
2019-03-26T08:52:03.690Z,11.80
2019-03-26T08:54:33.915Z,12.10
2019-03-26T08:57:04.190Z,11.80
2019-03-26T08:59:34.484Z,11.90
2019-03-26T09:02:04.873Z,12.10
2019-03-26T09:04:35.147Z,13.00
2019-03-26T09:07:10.920Z,13.30
2019-03-26T09:09:40.121Z,11.80
2019-03-26T09:12:10.446Z,10.30
2019-03-26T09:14:40.775Z,9.60
2019-03-26T09:17:12.226Z,9.20
2019-03-26T09:19:42.423Z,9.20
2019-03-26T09:22:13.110Z,9.50
2019-03-26T09:24:46.001Z,10.80
2019-03-26T09:27:16.462Z,11.20
2019-03-26T09:29:46.659Z,12.00
2019-03-26T09:32:16.934Z,12.50
2019-03-26T09:34:47.396Z,13.40
2019-03-26T09:37:19.533Z,12.80
2019-03-26T09:39:49.759Z,12.50
2019-03-26T09:42:20.719Z,12.40
2019-03-26T09:44:51.352Z,12.20
2019-03-26T09:47:22.107Z,11.50
2019-03-26T09:49:54.803Z,11.00
2019-03-26T09:52:25.067Z,10.90
2019-03-26T09:54:55.304Z,10.60
2019-03-26T09:57:26.136Z,11.00
2019-03-26T09:59:56.424Z,11.10
2019-03-26T10:02:26.673Z,11.40
2019-03-26T10:04:57.054Z,11.80
2019-03-26T10:07:27.793Z,11.60
2019-03-26T10:09:58.007Z,11.10
2019-03-26T10:12:28.331Z,11.00
2019-03-26T10:14:59.002Z,11.10
2019-03-26T10:17:29.294Z,11.20
2019-03-26T10:20:01.651Z,10.90
2019-03-26T10:22:31.886Z,10.70
2019-03-26T10:25:02.151Z,10.50
2019-03-26T10:27:34.993Z,10.40
2019-03-26T10:30:05.775Z,10.10
2019-03-26T10:32:36.914Z,9.80
2019-03-26T10:35:07.362Z,9.60
2019-03-26T10:37:38.170Z,9.40
2019-03-26T10:40:08.975Z,9.40
2019-03-26T10:42:39.292Z,9.50
2019-03-26T10:45:09.710Z,9.40
2019-03-26T10:47:40.032Z,9.40
2019-03-26T10:50:10.666Z,9.30
2019-03-26T10:52:40.944Z,9.30
2019-03-26T10:55:11.272Z,9.20
2019-03-26T10:57:41.489Z,9.30
2019-03-26T11:00:14.685Z,9.20
2019-03-26T11:02:45.667Z,8.90
2019-03-26T11:05:19.363Z,8.90
2019-03-26T11:07:50.611Z,8.90
2019-03-26T11:10:20.797Z,8.80
2019-03-26T11:12:51.111Z,9.00
2019-03-26T11:15:21.294Z,9.10
2019-03-26T11:17:51.499Z,9.30
2019-03-26T11:20:21.671Z,9.40
2019-03-26T11:22:51.933Z,9.40
2019-03-26T11:25:22.233Z,9.20
2019-03-26T11:27:52.513Z,9.10
2019-03-26T11:30:22.762Z,9.10
2019-03-26T11:32:53.123Z,9.20
2019-03-26T11:35:25.708Z,8.90
2019-03-26T11:37:56.004Z,8.40
2019-03-26T11:40:26.196Z,8.00
2019-03-26T11:42:56.464Z,7.90
2019-03-26T11:45:26.761Z,7.70
2019-03-26T11:47:57.030Z,7.70
2019-03-26T11:50:27.298Z,8.00
2019-03-26T11:52:57.551Z,8.40
2019-03-26T11:55:32.512Z,8.50
2019-03-26T11:58:02.775Z,8.30
2019-03-26T12:00:35.506Z,7.80
2019-03-26T12:03:05.933Z,7.50
2019-03-26T12:05:36.189Z,7.30
2019-03-26T12:08:06.533Z,7.30
2019-03-26T12:10:36.924Z,7.20
2019-03-26T12:13:07.303Z,7.20
2019-03-26T12:15:37.629Z,7.40
2019-03-26T12:18:07.905Z,7.50
2019-03-26T12:20:38.178Z,7.70
2019-03-26T12:23:08.479Z,7.70
2019-03-26T12:25:38.846Z,7.70
2019-03-26T12:28:09.230Z,7.60
2019-03-26T12:30:40.267Z,7.60
2019-03-26T12:33:12.129Z,7.70
2019-03-26T12:35:42.392Z,7.70
2019-03-26T12:38:23.338Z,7.60
2019-03-26T12:40:54.489Z,7.70
2019-03-26T12:43:25.287Z,7.70
2019-03-26T12:45:56.187Z,7.90
2019-03-26T12:48:26.482Z,8.00
2019-03-26T12:50:56.658Z,8.00
2019-03-26T12:53:27.185Z,8.00
2019-03-26T12:55:57.470Z,8.10
2019-03-26T12:58:32.586Z,8.10
2019-03-26T13:01:03.018Z,8.10
2019-03-26T13:03:33.182Z,8.10
2019-03-26T13:06:03.552Z,8.10
2019-03-26T13:08:33.865Z,8.10
2019-03-26T13:11:04.323Z,8.30
2019-03-26T13:13:34.687Z,8.30
2019-03-26T13:16:04.893Z,8.40
2019-03-26T13:18:35.182Z,8.40
2019-03-26T13:21:05.402Z,8.20
2019-03-26T13:23:35.626Z,8.30
2019-03-26T13:26:05.849Z,8.60
2019-03-26T13:28:36.559Z,8.90
2019-03-26T13:31:06.917Z,9.20
2019-03-26T13:33:37.116Z,9.20
2019-03-26T13:36:08.047Z,9.40
2019-03-26T13:38:38.353Z,9.50
2019-03-26T13:41:08.666Z,9.10
2019-03-26T13:43:38.909Z,8.80
2019-03-26T13:46:09.163Z,8.60
2019-03-26T13:48:39.473Z,8.40
2019-03-26T13:51:09.680Z,8.30
2019-03-26T13:53:41.603Z,8.30
2019-03-26T13:56:12.091Z,8.10
2019-03-26T13:58:42.334Z,7.90
2019-03-26T14:01:12.570Z,7.80
2019-03-26T14:03:42.839Z,7.80
2019-03-26T14:06:13.138Z,8.10
2019-03-26T14:08:43.423Z,8.50
2019-03-26T14:11:13.663Z,8.50
2019-03-26T14:13:43.906Z,8.60
2019-03-26T14:16:14.177Z,8.50
2019-03-26T14:18:44.893Z,8.60
2019-03-26T14:21:15.167Z,8.60
2019-03-26T14:23:45.383Z,8.70
2019-03-26T14:26:15.638Z,8.80
2019-03-26T14:28:45.844Z,8.90
2019-03-26T14:31:16.240Z,9.00
2019-03-26T14:33:46.435Z,8.90
2019-03-26T14:36:16.721Z,8.60
2019-03-26T14:38:50.102Z,8.40
2019-03-26T14:41:20.389Z,8.30
2019-03-26T14:43:50.665Z,8.30
2019-03-26T14:46:21.075Z,8.40
2019-03-26T14:48:51.280Z,8.50
2019-03-26T14:51:23.097Z,8.50
2019-03-26T14:53:53.820Z,8.50
2019-03-26T14:56:24.099Z,8.50
2019-03-26T14:58:54.295Z,8.30
2019-03-26T15:01:24.597Z,8.30
2019-03-26T15:03:57.861Z,8.50
2019-03-26T15:06:29.533Z,8.70
2019-03-26T15:08:59.786Z,8.70
2019-03-26T15:11:30.079Z,8.60
2019-03-26T15:14:01.822Z,8.60
2019-03-26T15:16:32.094Z,8.60
2019-03-26T15:19:02.804Z,8.60
2019-03-26T15:21:33.046Z,8.50
2019-03-26T15:24:03.466Z,8.30
2019-03-26T15:26:33.760Z,8.30
2019-03-26T15:29:03.979Z,8.20
2019-03-26T15:31:34.532Z,8.10
2019-03-26T15:34:04.761Z,8.10
2019-03-26T15:36:35.027Z,7.90
2019-03-26T15:39:07.640Z,7.90
2019-03-26T15:41:37.898Z,7.90
2019-03-26T15:44:08.081Z,7.90
2019-03-26T15:46:38.329Z,7.90
2019-03-26T15:49:08.717Z,7.90
2019-03-26T15:51:39.051Z,7.90
2019-03-26T15:54:09.713Z,8.00
2019-03-26T15:56:39.990Z,8.00
2019-03-26T15:59:10.202Z,7.90
2019-03-26T16:01:40.540Z,7.70
2019-03-26T16:04:10.781Z,7.60
2019-03-26T16:06:41.074Z,7.60
2019-03-26T16:09:11.367Z,7.60
2019-03-26T16:11:41.613Z,7.50
2019-03-26T16:14:12.515Z,7.40
2019-03-26T16:16:42.827Z,7.50
2019-03-26T16:19:13.098Z,7.40
2019-03-26T16:21:43.483Z,7.40
2019-03-26T16:24:14.312Z,7.40
2019-03-26T16:26:45.064Z,7.30
2019-03-26T16:29:15.268Z,7.40
2019-03-26T16:31:45.518Z,7.40
2019-03-26T16:34:15.800Z,7.30
2019-03-26T16:36:58.766Z,7.20
2019-03-26T16:39:18.389Z,7.30
2019-03-26T16:41:49.611Z,7.30
2019-03-26T16:44:20.097Z,7.30
2019-03-26T16:46:50.537Z,7.20
2019-03-26T16:49:23.047Z,7.20
2019-03-26T16:51:53.284Z,7.20
2019-03-26T16:54:23.506Z,7.20
2019-03-26T16:56:53.843Z,7.20
2019-03-26T16:59:24.229Z,7.20
2019-03-26T17:01:54.518Z,7.20
2019-03-26T17:04:24.736Z,7.20
2019-03-26T17:07:00.014Z,7.20
2019-03-26T17:09:30.271Z,7.10
2019-03-26T17:12:03.423Z,7.10
2019-03-26T17:14:32.414Z,7.10
2019-03-26T17:17:02.777Z,7.10
2019-03-26T17:19:33.030Z,7.10
2019-03-26T17:22:03.901Z,7.10
2019-03-26T17:24:34.230Z,7.10
2019-03-26T17:27:04.495Z,7.10
2019-03-26T17:29:35.220Z,7.10
2019-03-26T17:32:05.533Z,7.10
2019-03-26T17:34:35.806Z,7.10
2019-03-26T17:37:06.168Z,7.00
2019-03-26T17:39:36.576Z,6.80
2019-03-26T17:42:17.023Z,6.70
2019-03-26T17:44:39.519Z,6.70
2019-03-26T17:47:10.982Z,6.70
2019-03-26T17:49:41.583Z,6.70
2019-03-26T17:52:11.895Z,6.70
2019-03-26T17:54:42.182Z,6.60
2019-03-26T17:57:14.914Z,6.40
2019-03-26T17:59:45.288Z,6.30
2019-03-26T18:02:15.586Z,6.20
2019-03-26T18:04:45.830Z,6.30
2019-03-26T18:07:16.037Z,6.30
2019-03-26T18:09:46.651Z,6.30
2019-03-26T18:12:29.889Z,6.20
2019-03-26T18:14:48.901Z,6.30
2019-03-26T18:17:19.794Z,6.30
2019-03-26T18:19:54.357Z,6.40
2019-03-26T18:22:24.626Z,6.40
2019-03-26T18:24:55.003Z,6.50
2019-03-26T18:27:25.214Z,6.20
2019-03-26T18:29:55.451Z,5.90
2019-03-26T18:32:25.864Z,5.50
2019-03-26T18:34:56.126Z,4.50
2019-03-26T18:37:28.169Z,4.10
2019-03-26T18:39:58.452Z,4.00
2019-03-26T18:42:28.704Z,4.00
2019-03-26T18:44:59.032Z,3.90
2019-03-26T18:47:29.345Z,3.90
2019-03-26T18:49:59.678Z,3.90
2019-03-26T18:52:29.928Z,3.90
2019-03-26T18:55:00.236Z,3.90
2019-03-26T18:57:30.699Z,4.10
2019-03-26T19:00:01.323Z,4.10
2019-03-26T19:02:31.583Z,4.20
2019-03-26T19:05:01.911Z,4.20
2019-03-26T19:07:32.130Z,4.20
2019-03-26T19:10:04.672Z,4.30
2019-03-26T19:12:34.906Z,4.30
2019-03-26T19:15:05.499Z,4.20
2019-03-26T19:17:35.728Z,4.20
2019-03-26T19:20:06.324Z,4.30
2019-03-26T19:22:36.624Z,4.30
2019-03-26T19:25:06.956Z,4.30
2019-03-26T19:27:37.152Z,4.40
2019-03-26T19:30:07.612Z,4.40
2019-03-26T19:32:38.008Z,4.40
2019-03-26T19:35:08.735Z,4.40
2019-03-26T19:37:38.948Z,4.40
2019-03-26T19:40:09.260Z,4.50
2019-03-26T19:42:39.527Z,4.50
2019-03-26T19:45:09.936Z,4.50
2019-03-26T19:47:40.139Z,4.60
2019-03-26T19:50:10.463Z,4.60
2019-03-26T19:52:41.093Z,4.60
2019-03-26T19:55:11.757Z,4.60
2019-03-26T19:57:42.105Z,4.70
2019-03-26T20:00:14.304Z,4.60
2019-03-26T20:02:45.114Z,4.60
2019-03-26T20:05:16.993Z,4.50
2019-03-26T20:07:47.992Z,4.50
2019-03-26T20:10:18.620Z,4.40
2019-03-26T20:12:48.955Z,4.40
2019-03-26T20:15:19.518Z,4.30
2019-03-26T20:17:50.014Z,4.40
2019-03-26T20:20:20.699Z,4.40
2019-03-26T20:22:50.948Z,4.30
2019-03-26T20:25:21.190Z,4.30
2019-03-26T20:27:51.506Z,4.30
2019-03-26T20:30:22.266Z,4.30
2019-03-26T20:32:52.546Z,4.20
2019-03-26T20:35:22.780Z,4.20
2019-03-26T20:37:53.068Z,4.20
2019-03-26T20:40:34.085Z,4.20
2019-03-26T20:43:04.515Z,4.20
2019-03-26T20:45:34.799Z,4.20
2019-03-26T20:48:05.162Z,4.20
2019-03-26T20:50:37.787Z,4.20
2019-03-26T20:53:08.178Z,4.20
2019-03-26T20:55:38.593Z,4.20
2019-03-26T20:58:27.996Z,4.10
2019-03-26T21:00:58.284Z,4.20
2019-03-26T21:03:29.651Z,4.20
2019-03-26T21:06:00.398Z,4.10
2019-03-26T21:08:30.763Z,4.10
2019-03-26T21:11:01.074Z,4.10
2019-03-26T21:13:31.687Z,4.10
2019-03-26T21:16:04.621Z,4.00
2019-03-26T21:18:34.903Z,4.10
2019-03-26T21:21:07.983Z,4.10
2019-03-26T21:23:38.211Z,4.10
2019-03-26T21:26:08.643Z,4.10
2019-03-26T21:28:42.160Z,4.00
2019-03-26T21:31:12.549Z,4.00
2019-03-26T21:33:42.822Z,4.00
2019-03-26T21:36:13.219Z,4.00
2019-03-26T21:38:43.640Z,4.00
2019-03-26T21:41:14.395Z,4.00
2019-03-26T21:43:44.809Z,4.00
2019-03-26T21:46:15.122Z,4.00
2019-03-26T21:48:45.549Z,4.10
2019-03-26T21:51:15.801Z,4.10
2019-03-26T21:53:46.108Z,4.20
2019-03-26T21:56:16.394Z,4.20
2019-03-26T21:58:46.713Z,4.20
2019-03-26T22:01:16.981Z,4.20
2019-03-26T22:03:47.171Z,4.20
2019-03-26T22:06:17.430Z,4.20
2019-03-26T22:08:47.698Z,4.10
2019-03-26T22:11:18.116Z,4.20
2019-03-26T22:13:48.482Z,4.20
2019-03-26T22:16:18.797Z,4.20
2019-03-26T22:18:49.190Z,4.30
2019-03-26T22:21:19.506Z,4.30
2019-03-26T22:23:49.840Z,4.40
2019-03-26T22:26:20.085Z,4.40
2019-03-26T22:28:50.555Z,4.40
2019-03-26T22:31:20.945Z,4.40
2019-03-26T22:33:51.257Z,4.40
2019-03-26T22:36:21.662Z,4.40
2019-03-26T22:38:52.032Z,4.30
2019-03-26T22:41:22.321Z,4.30
2019-03-26T22:43:54.986Z,4.30
2019-03-26T22:46:24.650Z,4.30
2019-03-26T22:48:55.228Z,4.30
2019-03-26T22:51:25.446Z,4.30
2019-03-26T22:53:55.745Z,4.30
2019-03-26T22:56:27.131Z,4.30
2019-03-26T22:58:57.331Z,4.40
2019-03-26T23:01:28.026Z,4.40
2019-03-26T23:03:58.242Z,4.40
2019-03-26T23:06:28.639Z,4.50
2019-03-26T23:08:58.874Z,4.50
2019-03-26T23:11:29.139Z,4.60
2019-03-26T23:13:59.619Z,4.70
2019-03-26T23:16:30.004Z,4.70
2019-03-26T23:19:00.407Z,4.80
2019-03-26T23:21:30.625Z,4.80
2019-03-26T23:24:00.831Z,4.80
2019-03-26T23:26:30.995Z,4.90
2019-03-26T23:29:01.206Z,4.80
2019-03-26T23:31:31.373Z,4.80
2019-03-26T23:34:01.568Z,4.90
2019-03-26T23:36:31.747Z,4.90
2019-03-26T23:39:01.950Z,4.80
2019-03-26T23:41:32.116Z,4.70
2019-03-26T23:44:02.368Z,4.70
2019-03-26T23:46:32.525Z,4.60
2019-03-26T23:49:02.840Z,4.50
2019-03-26T23:51:33.107Z,4.60
2019-03-26T23:54:03.515Z,4.50
2019-03-26T23:56:33.708Z,4.50
2019-03-26T23:59:03.954Z,4.50
